sensor_id;sensor_type;location;lat;lon;timestamp;P1;durP1;ratioP1;P2;durP2;ratioP2
45792;SDS011;31495;42.740;22.908;2022-07-26T00:00:05;12.23;;;10.00;;
45792;SDS011;31495;42.740;22.908;2022-07-26T00:01:08;11.32;;;9.15;;
45792;SDS011;31495;42.740;22.908;2022-07-26T00:02:07;12.05;;;9.80;;
45792;SDS011;31495;42.740;22.908;2022-07-26T00:03:07;13.25;;;10.45;;
45792;SDS011;31495;42.740;22.908;2022-07-26T00:04:06;11.73;;;9.65;;
45792;SDS011;31495;42.740;22.908;2022-07-26T00:05:06;13.65;;;9.45;;
45792;SDS011;31495;42.740;22.908;2022-07-26T00:06:06;11.40;;;9.80;;
45792;SDS011;31495;42.740;22.908;2022-07-26T00:07:06;14.50;;;9.38;;
45792;SDS011;31495;42.740;22.908;2022-07-26T00:08:05;11.43;;;9.10;;
45792;SDS011;31495;42.740;22.908;2022-07-26T00:09:11;11.95;;;9.52;;
45792;SDS011;31495;42.740;22.908;2022-07-26T00:10:11;11.43;;;9.52;;
45792;SDS011;31495;42.740;22.908;2022-07-26T00:11:12;10.70;;;9.27;;
45792;SDS011;31495;42.740;22.908;2022-07-26T00:12:12;11.45;;;9.18;;
45792;SDS011;31495;42.740;22.908;2022-07-26T00:13:12;15.57;;;9.75;;
45792;SDS011;31495;42.740;22.908;2022-07-26T00:14:12;11.77;;;9.98;;
45792;SDS011;31495;42.740;22.908;2022-07-26T00:15:12;11.00;;;9.02;;
45792;SDS011;31495;42.740;22.908;2022-07-26T00:16:11;11.13;;;9.52;;
45792;SDS011;31495;42.740;22.908;2022-07-26T00:17:11;12.20;;;8.85;;
45792;SDS011;31495;42.740;22.908;2022-07-26T00:18:11;12.57;;;9.82;;
45792;SDS011;31495;42.740;22.908;2022-07-26T00:19:12;11.88;;;8.98;;
45792;SDS011;31495;42.740;22.908;2022-07-26T00:20:12;13.57;;;10.90;;
45792;SDS011;31495;42.740;22.908;2022-07-26T00:21:11;11.55;;;8.98;;
45792;SDS011;31495;42.740;22.908;2022-07-26T00:22:11;12.90;;;9.85;;
45792;SDS011;31495;42.740;22.908;2022-07-26T00:23:29;14.63;;;10.13;;
45792;SDS011;31495;42.740;22.908;2022-07-26T00:24:29;13.02;;;10.18;;
45792;SDS011;31495;42.740;22.908;2022-07-26T00:25:28;11.35;;;8.70;;
45792;SDS011;31495;42.740;22.908;2022-07-26T00:26:28;12.25;;;9.38;;
45792;SDS011;31495;42.740;22.908;2022-07-26T00:27:27;11.00;;;9.38;;
45792;SDS011;31495;42.740;22.908;2022-07-26T00:28:26;11.52;;;9.32;;
45792;SDS011;31495;42.740;22.908;2022-07-26T00:29:26;13.52;;;9.77;;
45792;SDS011;31495;42.740;22.908;2022-07-26T00:30:25;14.07;;;10.15;;
45792;SDS011;31495;42.740;22.908;2022-07-26T00:31:25;14.65;;;10.52;;
45792;SDS011;31495;42.740;22.908;2022-07-26T00:32:25;14.43;;;10.05;;
45792;SDS011;31495;42.740;22.908;2022-07-26T00:33:24;10.80;;;8.85;;
45792;SDS011;31495;42.740;22.908;2022-07-26T00:34:24;11.95;;;10.23;;
45792;SDS011;31495;42.740;22.908;2022-07-26T00:35:23;10.98;;;9.60;;
45792;SDS011;31495;42.740;22.908;2022-07-26T00:36:23;12.68;;;9.85;;
45792;SDS011;31495;42.740;22.908;2022-07-26T00:37:23;11.77;;;9.55;;
45792;SDS011;31495;42.740;22.908;2022-07-26T00:38:22;15.38;;;10.82;;
45792;SDS011;31495;42.740;22.908;2022-07-26T00:39:22;12.20;;;10.10;;
45792;SDS011;31495;42.740;22.908;2022-07-26T00:40:22;12.85;;;10.02;;
45792;SDS011;31495;42.740;22.908;2022-07-26T00:41:22;12.45;;;10.00;;
45792;SDS011;31495;42.740;22.908;2022-07-26T00:42:21;12.70;;;10.25;;
45792;SDS011;31495;42.740;22.908;2022-07-26T00:43:21;11.77;;;10.02;;
45792;SDS011;31495;42.740;22.908;2022-07-26T00:44:20;18.13;;;10.43;;
45792;SDS011;31495;42.740;22.908;2022-07-26T00:45:20;18.45;;;9.45;;
45792;SDS011;31495;42.740;22.908;2022-07-26T00:46:19;11.90;;;10.23;;
45792;SDS011;31495;42.740;22.908;2022-07-26T00:47:19;12.23;;;10.02;;
45792;SDS011;31495;42.740;22.908;2022-07-26T00:48:19;13.75;;;10.25;;
45792;SDS011;31495;42.740;22.908;2022-07-26T00:49:18;12.75;;;9.38;;
45792;SDS011;31495;42.740;22.908;2022-07-26T00:50:18;11.75;;;10.32;;
45792;SDS011;31495;42.740;22.908;2022-07-26T00:51:18;11.75;;;9.73;;
45792;SDS011;31495;42.740;22.908;2022-07-26T00:52:19;10.98;;;9.32;;
45792;SDS011;31495;42.740;22.908;2022-07-26T00:53:19;12.35;;;10.07;;
45792;SDS011;31495;42.740;22.908;2022-07-26T00:55:19;11.18;;;9.23;;
45792;SDS011;31495;42.740;22.908;2022-07-26T00:56:20;15.77;;;10.02;;
45792;SDS011;31495;42.740;22.908;2022-07-26T00:57:20;21.42;;;9.88;;
45792;SDS011;31495;42.740;22.908;2022-07-26T00:58:21;14.43;;;11.13;;
45792;SDS011;31495;42.740;22.908;2022-07-26T00:59:20;11.57;;;9.73;;
45792;SDS011;31495;42.740;22.908;2022-07-26T01:00:21;12.32;;;10.23;;
45792;SDS011;31495;42.740;22.908;2022-07-26T01:01:26;12.55;;;10.15;;
45792;SDS011;31495;42.740;22.908;2022-07-26T01:02:25;14.80;;;10.75;;
45792;SDS011;31495;42.740;22.908;2022-07-26T01:03:25;12.68;;;10.45;;
45792;SDS011;31495;42.740;22.908;2022-07-26T01:04:24;15.95;;;11.20;;
45792;SDS011;31495;42.740;22.908;2022-07-26T01:05:26;13.55;;;9.93;;
45792;SDS011;31495;42.740;22.908;2022-07-26T01:06:25;13.52;;;10.27;;
45792;SDS011;31495;42.740;22.908;2022-07-26T01:07:24;11.95;;;10.27;;
45792;SDS011;31495;42.740;22.908;2022-07-26T01:08:24;11.65;;;9.90;;
45792;SDS011;31495;42.740;22.908;2022-07-26T01:09:24;12.55;;;10.50;;
45792;SDS011;31495;42.740;22.908;2022-07-26T01:10:24;13.82;;;11.10;;
45792;SDS011;31495;42.740;22.908;2022-07-26T01:11:23;14.73;;;10.88;;
45792;SDS011;31495;42.740;22.908;2022-07-26T01:12:23;15.25;;;10.88;;
45792;SDS011;31495;42.740;22.908;2022-07-26T01:13:22;13.63;;;10.75;;
45792;SDS011;31495;42.740;22.908;2022-07-26T01:14:22;11.60;;;9.93;;
45792;SDS011;31495;42.740;22.908;2022-07-26T01:15:22;12.80;;;10.23;;
45792;SDS011;31495;42.740;22.908;2022-07-26T01:16:21;12.88;;;10.23;;
45792;SDS011;31495;42.740;22.908;2022-07-26T01:17:21;11.80;;;10.52;;
45792;SDS011;31495;42.740;22.908;2022-07-26T01:18:20;16.98;;;11.00;;
45792;SDS011;31495;42.740;22.908;2022-07-26T01:19:20;15.25;;;11.23;;
45792;SDS011;31495;42.740;22.908;2022-07-26T01:20:20;17.38;;;11.43;;
45792;SDS011;31495;42.740;22.908;2022-07-26T01:21:19;13.65;;;10.77;;
45792;SDS011;31495;42.740;22.908;2022-07-26T01:22:20;13.43;;;10.40;;
45792;SDS011;31495;42.740;22.908;2022-07-26T01:23:19;13.43;;;11.52;;
45792;SDS011;31495;42.740;22.908;2022-07-26T01:24:19;14.75;;;10.95;;
45792;SDS011;31495;42.740;22.908;2022-07-26T01:25:33;11.43;;;10.23;;
45792;SDS011;31495;42.740;22.908;2022-07-26T01:26:34;16.60;;;10.98;;
45792;SDS011;31495;42.740;22.908;2022-07-26T01:27:34;13.15;;;10.43;;
45792;SDS011;31495;42.740;22.908;2022-07-26T01:28:37;16.90;;;10.55;;
45792;SDS011;31495;42.740;22.908;2022-07-26T01:29:38;13.77;;;10.65;;
45792;SDS011;31495;42.740;22.908;2022-07-26T01:30:38;15.65;;;11.68;;
45792;SDS011;31495;42.740;22.908;2022-07-26T01:31:37;12.38;;;10.48;;
45792;SDS011;31495;42.740;22.908;2022-07-26T01:32:37;12.77;;;10.48;;
45792;SDS011;31495;42.740;22.908;2022-07-26T01:33:37;12.70;;;10.07;;
45792;SDS011;31495;42.740;22.908;2022-07-26T01:34:36;17.10;;;10.55;;
45792;SDS011;31495;42.740;22.908;2022-07-26T01:35:36;14.23;;;10.80;;
45792;SDS011;31495;42.740;22.908;2022-07-26T01:36:35;15.52;;;11.40;;
45792;SDS011;31495;42.740;22.908;2022-07-26T01:37:34;10.90;;;9.65;;
45792;SDS011;31495;42.740;22.908;2022-07-26T01:38:34;15.40;;;11.00;;
45792;SDS011;31495;42.740;22.908;2022-07-26T01:39:33;13.43;;;10.68;;
45792;SDS011;31495;42.740;22.908;2022-07-26T01:40:33;13.43;;;10.63;;
45792;SDS011;31495;42.740;22.908;2022-07-26T01:41:32;14.70;;;10.77;;
45792;SDS011;31495;42.740;22.908;2022-07-26T01:42:32;13.48;;;10.85;;
45792;SDS011;31495;42.740;22.908;2022-07-26T01:43:32;13.00;;;10.45;;
45792;SDS011;31495;42.740;22.908;2022-07-26T01:44:32;12.82;;;10.30;;
45792;SDS011;31495;42.740;22.908;2022-07-26T01:45:31;13.13;;;10.68;;
45792;SDS011;31495;42.740;22.908;2022-07-26T01:46:31;14.70;;;11.15;;
45792;SDS011;31495;42.740;22.908;2022-07-26T01:47:30;14.70;;;10.82;;
45792;SDS011;31495;42.740;22.908;2022-07-26T01:48:30;13.25;;;10.45;;
45792;SDS011;31495;42.740;22.908;2022-07-26T01:49:29;11.10;;;9.95;;
45792;SDS011;31495;42.740;22.908;2022-07-26T01:50:29;12.82;;;10.38;;
45792;SDS011;31495;42.740;22.908;2022-07-26T01:51:28;12.98;;;10.73;;
45792;SDS011;31495;42.740;22.908;2022-07-26T01:52:28;12.65;;;10.05;;
45792;SDS011;31495;42.740;22.908;2022-07-26T01:53:28;14.55;;;10.55;;
45792;SDS011;31495;42.740;22.908;2022-07-26T01:54:27;15.27;;;10.57;;
45792;SDS011;31495;42.740;22.908;2022-07-26T01:55:26;11.63;;;9.68;;
45792;SDS011;31495;42.740;22.908;2022-07-26T01:56:26;12.85;;;10.52;;
45792;SDS011;31495;42.740;22.908;2022-07-26T01:57:25;11.65;;;10.45;;
45792;SDS011;31495;42.740;22.908;2022-07-26T01:58:25;11.73;;;10.48;;
45792;SDS011;31495;42.740;22.908;2022-07-26T01:59:24;13.27;;;11.00;;
45792;SDS011;31495;42.740;22.908;2022-07-26T02:00:24;13.20;;;10.45;;
45792;SDS011;31495;42.740;22.908;2022-07-26T02:01:23;13.93;;;11.30;;
45792;SDS011;31495;42.740;22.908;2022-07-26T02:02:23;13.48;;;10.38;;
45792;SDS011;31495;42.740;22.908;2022-07-26T02:03:23;12.60;;;10.20;;
45792;SDS011;31495;42.740;22.908;2022-07-26T02:04:22;13.02;;;10.75;;
45792;SDS011;31495;42.740;22.908;2022-07-26T02:05:41;16.75;;;10.93;;
45792;SDS011;31495;42.740;22.908;2022-07-26T02:06:40;13.88;;;10.63;;
45792;SDS011;31495;42.740;22.908;2022-07-26T02:07:41;11.63;;;10.10;;
45792;SDS011;31495;42.740;22.908;2022-07-26T02:08:41;14.52;;;10.80;;
45792;SDS011;31495;42.740;22.908;2022-07-26T02:09:40;12.38;;;10.63;;
45792;SDS011;31495;42.740;22.908;2022-07-26T02:10:40;13.20;;;11.10;;
45792;SDS011;31495;42.740;22.908;2022-07-26T02:11:58;12.88;;;11.07;;
45792;SDS011;31495;42.740;22.908;2022-07-26T02:12:57;17.27;;;11.18;;
45792;SDS011;31495;42.740;22.908;2022-07-26T02:13:57;15.43;;;10.98;;
45792;SDS011;31495;42.740;22.908;2022-07-26T02:14:57;13.80;;;11.30;;
45792;SDS011;31495;42.740;22.908;2022-07-26T02:15:58;13.30;;;10.80;;
45792;SDS011;31495;42.740;22.908;2022-07-26T02:16:58;12.85;;;10.88;;
45792;SDS011;31495;42.740;22.908;2022-07-26T02:17:58;16.63;;;11.20;;
45792;SDS011;31495;42.740;22.908;2022-07-26T02:18:57;14.43;;;10.70;;
45792;SDS011;31495;42.740;22.908;2022-07-26T02:19:57;13.30;;;10.23;;
45792;SDS011;31495;42.740;22.908;2022-07-26T02:20:57;14.02;;;11.13;;
45792;SDS011;31495;42.740;22.908;2022-07-26T02:21:58;12.77;;;10.70;;
45792;SDS011;31495;42.740;22.908;2022-07-26T02:22:59;14.43;;;11.13;;
45792;SDS011;31495;42.740;22.908;2022-07-26T02:23:59;13.55;;;10.30;;
45792;SDS011;31495;42.740;22.908;2022-07-26T02:24:59;12.00;;;10.48;;
45792;SDS011;31495;42.740;22.908;2022-07-26T02:25:58;14.40;;;11.27;;
45792;SDS011;31495;42.740;22.908;2022-07-26T02:26:58;12.88;;;10.60;;
45792;SDS011;31495;42.740;22.908;2022-07-26T02:27:58;15.68;;;11.15;;
45792;SDS011;31495;42.740;22.908;2022-07-26T02:28:59;15.38;;;11.02;;
45792;SDS011;31495;42.740;22.908;2022-07-26T02:29:58;12.18;;;10.85;;
45792;SDS011;31495;42.740;22.908;2022-07-26T02:30:58;13.40;;;10.80;;
45792;SDS011;31495;42.740;22.908;2022-07-26T02:31:57;13.88;;;10.88;;
45792;SDS011;31495;42.740;22.908;2022-07-26T02:32:57;12.48;;;10.43;;
45792;SDS011;31495;42.740;22.908;2022-07-26T02:33:57;13.25;;;9.82;;
45792;SDS011;31495;42.740;22.908;2022-07-26T02:34:56;12.73;;;10.18;;
45792;SDS011;31495;42.740;22.908;2022-07-26T02:35:56;14.80;;;10.90;;
45792;SDS011;31495;42.740;22.908;2022-07-26T02:36:55;12.60;;;10.77;;
45792;SDS011;31495;42.740;22.908;2022-07-26T02:37:59;13.98;;;11.20;;
45792;SDS011;31495;42.740;22.908;2022-07-26T02:38:59;14.10;;;11.90;;
45792;SDS011;31495;42.740;22.908;2022-07-26T02:39:59;16.27;;;11.80;;
45792;SDS011;31495;42.740;22.908;2022-07-26T02:40:58;12.75;;;9.98;;
45792;SDS011;31495;42.740;22.908;2022-07-26T02:41:59;15.82;;;11.18;;
45792;SDS011;31495;42.740;22.908;2022-07-26T02:43:00;14.90;;;10.52;;
45792;SDS011;31495;42.740;22.908;2022-07-26T02:44:00;15.60;;;11.68;;
45792;SDS011;31495;42.740;22.908;2022-07-26T02:44:59;15.52;;;11.45;;
45792;SDS011;31495;42.740;22.908;2022-07-26T02:45:59;16.88;;;10.70;;
45792;SDS011;31495;42.740;22.908;2022-07-26T02:46:58;14.05;;;11.02;;
45792;SDS011;31495;42.740;22.908;2022-07-26T02:47:57;14.07;;;11.98;;
45792;SDS011;31495;42.740;22.908;2022-07-26T02:48:57;14.85;;;11.32;;
45792;SDS011;31495;42.740;22.908;2022-07-26T02:50:58;17.23;;;11.35;;
45792;SDS011;31495;42.740;22.908;2022-07-26T02:51:57;13.88;;;11.60;;
45792;SDS011;31495;42.740;22.908;2022-07-26T02:52:57;13.35;;;11.10;;
45792;SDS011;31495;42.740;22.908;2022-07-26T02:53:56;13.73;;;11.57;;
45792;SDS011;31495;42.740;22.908;2022-07-26T02:54:56;15.35;;;12.00;;
45792;SDS011;31495;42.740;22.908;2022-07-26T02:55:56;15.13;;;10.98;;
45792;SDS011;31495;42.740;22.908;2022-07-26T02:56:55;14.32;;;10.70;;
45792;SDS011;31495;42.740;22.908;2022-07-26T02:57:55;22.17;;;12.10;;
45792;SDS011;31495;42.740;22.908;2022-07-26T02:58:54;15.05;;;11.63;;
45792;SDS011;31495;42.740;22.908;2022-07-26T02:59:53;12.27;;;10.10;;
45792;SDS011;31495;42.740;22.908;2022-07-26T03:00:53;13.43;;;11.20;;
45792;SDS011;31495;42.740;22.908;2022-07-26T03:01:52;18.00;;;11.23;;
45792;SDS011;31495;42.740;22.908;2022-07-26T03:02:52;15.38;;;11.35;;
45792;SDS011;31495;42.740;22.908;2022-07-26T03:03:51;12.88;;;10.82;;
45792;SDS011;31495;42.740;22.908;2022-07-26T03:04:51;15.48;;;11.95;;
45792;SDS011;31495;42.740;22.908;2022-07-26T03:05:51;14.75;;;11.20;;
45792;SDS011;31495;42.740;22.908;2022-07-26T03:06:50;13.07;;;10.15;;
45792;SDS011;31495;42.740;22.908;2022-07-26T03:07:49;13.77;;;11.93;;
45792;SDS011;31495;42.740;22.908;2022-07-26T03:08:49;13.90;;;10.43;;
45792;SDS011;31495;42.740;22.908;2022-07-26T03:09:49;15.55;;;10.80;;
45792;SDS011;31495;42.740;22.908;2022-07-26T03:10:48;15.30;;;11.75;;
45792;SDS011;31495;42.740;22.908;2022-07-26T03:11:48;15.15;;;11.07;;
45792;SDS011;31495;42.740;22.908;2022-07-26T03:12:47;12.77;;;10.43;;
45792;SDS011;31495;42.740;22.908;2022-07-26T03:13:47;15.15;;;11.40;;
45792;SDS011;31495;42.740;22.908;2022-07-26T03:14:46;15.50;;;11.73;;
45792;SDS011;31495;42.740;22.908;2022-07-26T03:15:46;17.95;;;12.80;;
45792;SDS011;31495;42.740;22.908;2022-07-26T03:16:45;13.18;;;11.52;;
45792;SDS011;31495;42.740;22.908;2022-07-26T03:17:45;12.85;;;11.00;;
45792;SDS011;31495;42.740;22.908;2022-07-26T03:18:44;14.32;;;11.95;;
45792;SDS011;31495;42.740;22.908;2022-07-26T03:19:44;13.80;;;11.93;;
45792;SDS011;31495;42.740;22.908;2022-07-26T03:20:43;16.55;;;11.80;;
45792;SDS011;31495;42.740;22.908;2022-07-26T03:21:43;14.68;;;11.70;;
45792;SDS011;31495;42.740;22.908;2022-07-26T03:22:42;14.13;;;12.60;;
45792;SDS011;31495;42.740;22.908;2022-07-26T03:23:42;16.52;;;11.82;;
45792;SDS011;31495;42.740;22.908;2022-07-26T03:24:41;14.85;;;11.10;;
45792;SDS011;31495;42.740;22.908;2022-07-26T03:25:41;13.50;;;10.65;;
45792;SDS011;31495;42.740;22.908;2022-07-26T03:26:41;16.52;;;11.77;;
45792;SDS011;31495;42.740;22.908;2022-07-26T03:27:41;14.55;;;11.35;;
45792;SDS011;31495;42.740;22.908;2022-07-26T03:28:40;13.80;;;11.45;;
45792;SDS011;31495;42.740;22.908;2022-07-26T03:29:42;14.18;;;12.10;;
45792;SDS011;31495;42.740;22.908;2022-07-26T03:30:41;15.43;;;12.05;;
45792;SDS011;31495;42.740;22.908;2022-07-26T03:31:41;23.15;;;12.23;;
45792;SDS011;31495;42.740;22.908;2022-07-26T03:32:40;14.75;;;12.02;;
45792;SDS011;31495;42.740;22.908;2022-07-26T03:33:40;14.95;;;11.88;;
45792;SDS011;31495;42.740;22.908;2022-07-26T03:34:39;13.38;;;10.98;;
45792;SDS011;31495;42.740;22.908;2022-07-26T03:35:38;15.57;;;12.30;;
45792;SDS011;31495;42.740;22.908;2022-07-26T03:36:38;18.70;;;12.55;;
45792;SDS011;31495;42.740;22.908;2022-07-26T03:37:38;13.13;;;11.40;;
45792;SDS011;31495;42.740;22.908;2022-07-26T03:38:38;16.05;;;12.55;;
45792;SDS011;31495;42.740;22.908;2022-07-26T03:39:37;17.33;;;12.55;;
45792;SDS011;31495;42.740;22.908;2022-07-26T03:40:38;15.15;;;12.07;;
45792;SDS011;31495;42.740;22.908;2022-07-26T03:41:38;14.70;;;11.77;;
45792;SDS011;31495;42.740;22.908;2022-07-26T03:42:37;18.13;;;11.55;;
45792;SDS011;31495;42.740;22.908;2022-07-26T03:43:37;15.80;;;12.43;;
45792;SDS011;31495;42.740;22.908;2022-07-26T03:44:36;17.02;;;11.85;;
45792;SDS011;31495;42.740;22.908;2022-07-26T03:45:35;16.45;;;11.48;;
45792;SDS011;31495;42.740;22.908;2022-07-26T03:46:35;15.13;;;11.65;;
45792;SDS011;31495;42.740;22.908;2022-07-26T03:47:34;16.38;;;12.65;;
45792;SDS011;31495;42.740;22.908;2022-07-26T03:48:35;19.77;;;12.00;;
45792;SDS011;31495;42.740;22.908;2022-07-26T03:49:34;16.02;;;12.50;;
45792;SDS011;31495;42.740;22.908;2022-07-26T03:50:34;15.48;;;11.80;;
45792;SDS011;31495;42.740;22.908;2022-07-26T03:51:33;15.07;;;12.38;;
45792;SDS011;31495;42.740;22.908;2022-07-26T03:52:33;16.13;;;10.68;;
45792;SDS011;31495;42.740;22.908;2022-07-26T03:53:33;16.20;;;12.57;;
45792;SDS011;31495;42.740;22.908;2022-07-26T03:54:32;15.88;;;12.10;;
45792;SDS011;31495;42.740;22.908;2022-07-26T03:55:31;14.95;;;11.65;;
45792;SDS011;31495;42.740;22.908;2022-07-26T03:56:50;14.90;;;11.80;;
45792;SDS011;31495;42.740;22.908;2022-07-26T03:57:49;19.48;;;12.02;;
45792;SDS011;31495;42.740;22.908;2022-07-26T03:58:49;17.25;;;12.27;;
45792;SDS011;31495;42.740;22.908;2022-07-26T03:59:48;18.80;;;13.55;;
45792;SDS011;31495;42.740;22.908;2022-07-26T04:00:48;19.70;;;12.27;;
45792;SDS011;31495;42.740;22.908;2022-07-26T04:01:47;19.30;;;12.77;;
45792;SDS011;31495;42.740;22.908;2022-07-26T04:02:47;15.18;;;12.05;;
45792;SDS011;31495;42.740;22.908;2022-07-26T04:03:46;17.90;;;12.30;;
45792;SDS011;31495;42.740;22.908;2022-07-26T04:04:45;17.17;;;12.27;;
45792;SDS011;31495;42.740;22.908;2022-07-26T04:05:45;21.50;;;14.43;;
45792;SDS011;31495;42.740;22.908;2022-07-26T04:06:45;17.83;;;12.52;;
45792;SDS011;31495;42.740;22.908;2022-07-26T04:07:46;18.20;;;12.98;;
45792;SDS011;31495;42.740;22.908;2022-07-26T04:08:45;19.38;;;13.35;;
45792;SDS011;31495;42.740;22.908;2022-07-26T04:09:45;20.15;;;13.45;;
45792;SDS011;31495;42.740;22.908;2022-07-26T04:10:45;19.98;;;12.95;;
45792;SDS011;31495;42.740;22.908;2022-07-26T04:11:46;19.83;;;13.32;;
45792;SDS011;31495;42.740;22.908;2022-07-26T04:12:46;21.20;;;14.13;;
45792;SDS011;31495;42.740;22.908;2022-07-26T04:13:46;25.20;;;15.07;;
45792;SDS011;31495;42.740;22.908;2022-07-26T04:14:45;21.92;;;13.38;;
45792;SDS011;31495;42.740;22.908;2022-07-26T04:15:45;17.27;;;13.13;;
45792;SDS011;31495;42.740;22.908;2022-07-26T04:16:45;20.52;;;13.48;;
45792;SDS011;31495;42.740;22.908;2022-07-26T04:17:45;21.08;;;13.75;;
45792;SDS011;31495;42.740;22.908;2022-07-26T04:19:45;22.70;;;14.63;;
45792;SDS011;31495;42.740;22.908;2022-07-26T04:20:45;25.40;;;15.23;;
45792;SDS011;31495;42.740;22.908;2022-07-26T04:21:44;25.98;;;14.23;;
45792;SDS011;31495;42.740;22.908;2022-07-26T04:22:44;20.95;;;15.05;;
45792;SDS011;31495;42.740;22.908;2022-07-26T04:23:43;18.30;;;13.85;;
45792;SDS011;31495;42.740;22.908;2022-07-26T04:24:43;17.50;;;13.35;;
45792;SDS011;31495;42.740;22.908;2022-07-26T04:25:42;22.17;;;13.48;;
45792;SDS011;31495;42.740;22.908;2022-07-26T04:26:41;19.58;;;13.23;;
45792;SDS011;31495;42.740;22.908;2022-07-26T04:27:41;18.30;;;13.45;;
45792;SDS011;31495;42.740;22.908;2022-07-26T04:28:41;18.45;;;13.23;;
45792;SDS011;31495;42.740;22.908;2022-07-26T04:29:41;16.45;;;12.38;;
45792;SDS011;31495;42.740;22.908;2022-07-26T04:30:40;18.05;;;13.52;;
45792;SDS011;31495;42.740;22.908;2022-07-26T04:31:40;21.75;;;13.57;;
45792;SDS011;31495;42.740;22.908;2022-07-26T04:32:40;18.98;;;13.77;;
45792;SDS011;31495;42.740;22.908;2022-07-26T04:33:40;16.45;;;12.65;;
45792;SDS011;31495;42.740;22.908;2022-07-26T04:34:39;24.17;;;13.45;;
45792;SDS011;31495;42.740;22.908;2022-07-26T04:35:39;18.85;;;13.95;;
45792;SDS011;31495;42.740;22.908;2022-07-26T04:36:38;18.20;;;12.43;;
45792;SDS011;31495;42.740;22.908;2022-07-26T04:37:41;17.60;;;12.93;;
45792;SDS011;31495;42.740;22.908;2022-07-26T04:38:41;18.25;;;13.82;;
45792;SDS011;31495;42.740;22.908;2022-07-26T04:39:41;19.60;;;13.98;;
45792;SDS011;31495;42.740;22.908;2022-07-26T04:40:41;18.58;;;13.77;;
45792;SDS011;31495;42.740;22.908;2022-07-26T04:41:40;17.60;;;14.40;;
45792;SDS011;31495;42.740;22.908;2022-07-26T04:42:40;21.88;;;14.27;;
45792;SDS011;31495;42.740;22.908;2022-07-26T04:43:39;25.30;;;15.68;;
45792;SDS011;31495;42.740;22.908;2022-07-26T04:44:39;22.17;;;13.90;;
45792;SDS011;31495;42.740;22.908;2022-07-26T04:45:38;25.67;;;14.93;;
45792;SDS011;31495;42.740;22.908;2022-07-26T04:46:38;19.52;;;14.15;;
45792;SDS011;31495;42.740;22.908;2022-07-26T04:47:41;19.52;;;14.82;;
45792;SDS011;31495;42.740;22.908;2022-07-26T04:48:41;19.63;;;14.02;;
45792;SDS011;31495;42.740;22.908;2022-07-26T04:49:41;18.25;;;13.57;;
45792;SDS011;31495;42.740;22.908;2022-07-26T04:50:40;27.05;;;15.90;;
45792;SDS011;31495;42.740;22.908;2022-07-26T04:51:40;20.02;;;14.93;;
45792;SDS011;31495;42.740;22.908;2022-07-26T04:52:40;19.17;;;13.57;;
45792;SDS011;31495;42.740;22.908;2022-07-26T04:53:39;18.75;;;13.23;;
45792;SDS011;31495;42.740;22.908;2022-07-26T04:54:39;24.95;;;16.17;;
45792;SDS011;31495;42.740;22.908;2022-07-26T04:55:39;29.02;;;15.07;;
45792;SDS011;31495;42.740;22.908;2022-07-26T04:56:39;20.38;;;14.98;;
45792;SDS011;31495;42.740;22.908;2022-07-26T04:57:38;18.20;;;14.27;;
45792;SDS011;31495;42.740;22.908;2022-07-26T04:58:38;20.75;;;13.88;;
45792;SDS011;31495;42.740;22.908;2022-07-26T04:59:37;22.65;;;15.57;;
45792;SDS011;31495;42.740;22.908;2022-07-26T05:00:37;18.92;;;15.65;;
45792;SDS011;31495;42.740;22.908;2022-07-26T05:01:37;19.38;;;14.32;;
45792;SDS011;31495;42.740;22.908;2022-07-26T05:02:36;18.88;;;14.27;;
45792;SDS011;31495;42.740;22.908;2022-07-26T05:03:37;22.33;;;15.05;;
45792;SDS011;31495;42.740;22.908;2022-07-26T05:04:37;19.85;;;15.10;;
45792;SDS011;31495;42.740;22.908;2022-07-26T05:05:36;21.48;;;15.77;;
45792;SDS011;31495;42.740;22.908;2022-07-26T05:06:36;19.50;;;15.73;;
45792;SDS011;31495;42.740;22.908;2022-07-26T05:07:43;18.60;;;15.82;;
45792;SDS011;31495;42.740;22.908;2022-07-26T05:08:44;17.52;;;14.40;;
45792;SDS011;31495;42.740;22.908;2022-07-26T05:09:44;21.10;;;16.00;;
45792;SDS011;31495;42.740;22.908;2022-07-26T05:10:43;24.33;;;16.65;;
45792;SDS011;31495;42.740;22.908;2022-07-26T05:11:42;23.15;;;15.38;;
45792;SDS011;31495;42.740;22.908;2022-07-26T05:12:42;19.90;;;15.63;;
45792;SDS011;31495;42.740;22.908;2022-07-26T05:13:41;19.48;;;15.02;;
45792;SDS011;31495;42.740;22.908;2022-07-26T05:14:41;20.80;;;16.13;;
45792;SDS011;31495;42.740;22.908;2022-07-26T05:15:40;24.52;;;15.90;;
45792;SDS011;31495;42.740;22.908;2022-07-26T05:16:39;21.98;;;15.73;;
45792;SDS011;31495;42.740;22.908;2022-07-26T05:17:39;20.60;;;14.27;;
45792;SDS011;31495;42.740;22.908;2022-07-26T05:19:40;24.73;;;15.27;;
45792;SDS011;31495;42.740;22.908;2022-07-26T05:20:39;30.42;;;15.82;;
45792;SDS011;31495;42.740;22.908;2022-07-26T05:21:39;46.42;;;16.88;;
45792;SDS011;31495;42.740;22.908;2022-07-26T05:22:39;29.88;;;16.73;;
45792;SDS011;31495;42.740;22.908;2022-07-26T05:23:38;22.33;;;15.60;;
45792;SDS011;31495;42.740;22.908;2022-07-26T05:24:38;21.50;;;14.98;;
45792;SDS011;31495;42.740;22.908;2022-07-26T05:25:37;21.35;;;15.50;;
45792;SDS011;31495;42.740;22.908;2022-07-26T05:26:37;25.60;;;15.98;;
45792;SDS011;31495;42.740;22.908;2022-07-26T05:27:36;23.83;;;16.23;;
45792;SDS011;31495;42.740;22.908;2022-07-26T05:28:37;25.98;;;15.50;;
45792;SDS011;31495;42.740;22.908;2022-07-26T05:29:37;22.63;;;15.43;;
45792;SDS011;31495;42.740;22.908;2022-07-26T05:30:36;22.45;;;15.13;;
45792;SDS011;31495;42.740;22.908;2022-07-26T05:31:36;24.33;;;15.70;;
45792;SDS011;31495;42.740;22.908;2022-07-26T05:32:35;26.40;;;15.75;;
45792;SDS011;31495;42.740;22.908;2022-07-26T05:33:36;23.95;;;15.90;;
45792;SDS011;31495;42.740;22.908;2022-07-26T05:34:35;23.17;;;17.70;;
45792;SDS011;31495;42.740;22.908;2022-07-26T05:35:34;22.23;;;16.52;;
45792;SDS011;31495;42.740;22.908;2022-07-26T05:36:34;25.90;;;16.15;;
45792;SDS011;31495;42.740;22.908;2022-07-26T05:37:34;26.95;;;17.63;;
45792;SDS011;31495;42.740;22.908;2022-07-26T05:38:34;22.08;;;15.90;;
45792;SDS011;31495;42.740;22.908;2022-07-26T05:39:33;24.05;;;15.63;;
45792;SDS011;31495;42.740;22.908;2022-07-26T05:40:33;26.52;;;16.40;;
45792;SDS011;31495;42.740;22.908;2022-07-26T05:41:32;25.38;;;16.52;;
45792;SDS011;31495;42.740;22.908;2022-07-26T05:42:32;25.83;;;16.50;;
45792;SDS011;31495;42.740;22.908;2022-07-26T05:43:31;28.33;;;16.75;;
45792;SDS011;31495;42.740;22.908;2022-07-26T05:44:31;31.60;;;16.35;;
45792;SDS011;31495;42.740;22.908;2022-07-26T05:45:30;24.42;;;15.25;;
45792;SDS011;31495;42.740;22.908;2022-07-26T05:46:30;22.35;;;15.82;;
45792;SDS011;31495;42.740;22.908;2022-07-26T05:47:29;27.85;;;16.73;;
45792;SDS011;31495;42.740;22.908;2022-07-26T05:48:29;24.75;;;16.02;;
45792;SDS011;31495;42.740;22.908;2022-07-26T05:49:28;26.48;;;16.25;;
45792;SDS011;31495;42.740;22.908;2022-07-26T05:50:28;21.65;;;15.52;;